Time;durP1;ratioP1;P1;durP2;ratioP2;P2;SDS_P1;SDS_P2;PMS_P1;PMS_P2;Temp;Humidity;BMP_temperature;BMP_pressure;BME280_temperature;BME280_humidity;BME280_pressure;Samples;Min_cycle;Max_cycle;Signal;HPM_P1;HPM_P2
2023/04/05 00:00:24;;;;;;;20.55;7.35;;;;;;;1.43;89.81;102297.09;5070376;28;20095;-75
2023/04/05 00:02:51;;;;;;;22.67;8.77;;;;;;;1.38;90.29;102284.78;5067399;28;20157;-75
2023/04/05 00:05:28;;;;;;;21.65;7.88;;;;;;;1.33;90.84;102299.84;5064163;28;20024;-75
2023/04/05 00:07:59;;;;;;;20.00;7.78;;;;;;;1.28;90.93;102303.44;5076931;28;20574;-75
2023/04/05 00:10:25;;;;;;;22.52;7.63;;;;;;;1.22;90.73;102296.44;5077839;28;20054;-75
2023/04/05 00:12:50;;;;;;;20.67;8.05;;;;;;;1.17;90.71;102298.25;5065659;28;20080;-75
2023/04/05 00:15:16;;;;;;;21.17;8.07;;;;;;;1.14;91.42;102303.56;5064581;28;20024;-75
2023/04/05 00:17:42;;;;;;;20.33;8.27;;;;;;;1.11;91.62;102295.66;5074734;28;20028;-75
2023/04/05 00:20:10;;;;;;;20.63;8.00;;;;;;;1.08;91.24;102296.56;5076876;28;20024;-75
2023/04/05 00:22:35;;;;;;;21.80;9.05;;;;;;;1.05;91.26;102293.97;5072043;28;20038;-75
2023/04/05 00:25:01;;;;;;;20.92;7.22;;;;;;;1.00;91.27;102280.78;5071499;28;20085;-75
2023/04/05 00:27:27;;;;;;;22.45;8.38;;;;;;;0.96;91.95;102300.22;5075642;28;20044;-75
2023/04/05 00:29:52;;;;;;;20.75;8.65;;;;;;;0.93;91.89;102291.44;5074569;28;20069;-75
2023/04/05 00:32:17;;;;;;;20.15;8.05;;;;;;;0.89;91.92;102287.94;5068201;28;20478;-75
2023/04/05 00:34:43;;;;;;;20.98;8.20;;;;;;;0.85;91.66;102280.94;5066751;28;20055;-75
2023/04/05 00:37:08;;;;;;;23.48;9.60;;;;;;;0.80;91.97;102278.31;5073181;28;20032;-75
2023/04/05 00:39:34;;;;;;;22.52;8.65;;;;;;;0.78;92.46;102284.53;5073013;28;20043;-75
2023/04/05 00:42:03;;;;;;;20.38;8.45;;;;;;;0.76;92.10;102275.72;5074334;28;20032;-75
2023/04/05 00:44:28;;;;;;;19.90;8.00;;;;;;;0.73;92.41;102281.03;5075251;28;20040;-75
2023/04/05 00:46:54;;;;;;;24.88;10.32;;;;;;;0.71;92.82;102277.53;5075920;28;20032;-75
2023/04/05 00:49:20;;;;;;;21.80;8.75;;;;;;;0.66;93.40;102270.53;5062430;28;20077;-75
2023/04/05 00:51:46;;;;;;;21.67;8.77;;;;;;;0.64;92.98;102268.78;5069651;28;20419;-75
2023/04/05 00:54:12;;;;;;;26.02;11.07;;;;;;;0.60;92.81;102264.41;5066553;28;20028;-75
2023/04/05 00:56:38;;;;;;;25.15;10.93;;;;;;;0.59;93.03;102266.19;5071712;28;20044;-76
2023/04/05 00:59:04;;;;;;;23.20;11.15;;;;;;;0.58;93.24;102263.53;5066221;28;20020;-75
2023/04/05 01:01:31;;;;;;;25.35;11.18;;;;;;;0.56;93.00;102266.22;5072537;28;20032;-75
2023/04/05 01:04:01;;;;;;;23.73;11.32;;;;;;;0.54;93.86;102270.63;5062260;28;20429;-75
2023/04/05 01:06:50;;;;;;;25.75;10.73;;;;;;;0.59;93.09;102282.06;5066784;28;20040;-75
2023/04/05 01:09:32;;;;;;;23.37;11.03;;;;;;;0.58;93.24;102280.28;5074550;28;20028;-75
2023/04/05 01:12:03;;;;;;;21.83;10.57;;;;;;;0.56;93.34;102279.44;5063478;28;20040;-75
2023/04/05 01:14:28;;;;;;;22.63;9.93;;;;;;;0.54;93.01;102270.63;5074780;28;20029;-75
2023/04/05 01:16:56;;;;;;;21.25;9.50;;;;;;;0.52;93.36;102272.41;5062652;28;20037;-75
2023/04/05 01:19:27;;;;;;;19.63;7.85;;;;;;;0.52;92.55;102267.13;5060570;28;20025;-75
2023/04/05 01:22:17;;;;;;;22.08;8.32;;;;;;;0.52;92.99;102267.97;5073645;28;20480;-75
2023/04/05 01:25:11;;;;;;;20.23;9.10;;;;;;;0.50;93.21;102269.78;5072861;28;20024;-75
2023/04/05 01:27:53;;;;;;;23.80;8.85;;;;;;;0.47;93.49;102260.97;5071139;28;20028;-75
2023/04/05 01:30:29;;;;;;;19.42;8.02;;;;;;;0.45;93.15;102258.34;5067728;28;20127;-75
2023/04/05 01:33:05;;;;;;;25.92;10.18;;;;;;;0.44;93.26;102263.66;5068529;28;20038;-75
2023/04/05 01:35:34;;;;;;;22.45;9.48;;;;;;;0.38;93.22;102258.41;5069093;28;20051;-75
2023/04/05 01:38:02;;;;;;;21.48;9.32;;;;;;;0.34;93.59;102261.09;5074703;28;20362;-75
2023/04/05 01:40:30;;;;;;;25.55;10.38;;;;;;;0.30;92.78;102255.84;5072757;28;20028;-75
2023/04/05 01:42:55;;;;;;;24.85;11.38;;;;;;;0.28;93.69;102252.31;5070081;28;20078;-75
2023/04/05 01:45:20;;;;;;;21.45;10.10;;;;;;;0.26;94.23;102249.69;5064847;28;20025;-75
2023/04/05 01:47:46;;;;;;;24.27;10.82;;;;;;;0.28;94.13;102255.84;5065210;28;20021;-75
2023/04/05 01:50:11;;;;;;;24.10;10.65;;;;;;;0.29;93.59;102246.16;5071929;28;20025;-75
2023/04/05 01:52:36;;;;;;;22.30;11.00;;;;;;;0.27;92.95;102243.50;5068444;28;20050;-75
2023/04/05 01:55:02;;;;;;;23.27;9.95;;;;;;;0.25;93.29;102240.00;5067708;28;20293;-75
2023/04/05 01:57:27;;;;;;;25.08;10.75;;;;;;;0.22;93.23;102242.69;5061379;28;20045;-75
2023/04/05 01:59:53;;;;;;;25.35;11.25;;;;;;;0.20;93.42;102240.94;5084107;28;20056;-75
2023/04/05 02:02:18;;;;;;;24.45;10.25;;;;;;;0.18;93.02;102238.31;5069163;28;20025;-75
2023/04/05 02:04:43;;;;;;;27.52;12.25;;;;;;;0.16;93.25;102238.31;5077113;28;20078;-75
2023/04/05 02:07:08;;;;;;;23.75;10.52;;;;;;;0.14;93.44;102239.22;5080347;28;20021;-75
2023/04/05 02:09:34;;;;;;;24.50;10.98;;;;;;;0.11;93.44;102231.31;5074424;28;20066;-75
2023/04/05 02:12:00;;;;;;;22.85;10.73;;;;;;;0.05;93.64;102228.72;5074710;28;20029;-75
2023/04/05 02:14:25;;;;;;;23.40;11.20;;;;;;;0.02;94.16;102236.66;5075016;28;20377;-75
2023/04/05 02:16:52;;;;;;;20.85;10.40;;;;;;;-0.02;94.48;102236.66;5062750;28;20040;-75
2023/04/05 02:19:21;;;;;;;32.47;13.73;;;;;;;-0.04;94.49;102238.44;5066941;28;20039;-75
2023/04/05 02:21:52;;;;;;;26.20;11.88;;;;;;;-0.06;94.30;102241.97;5069057;28;20448;-75
2023/04/05 02:24:18;;;;;;;24.48;12.00;;;;;;;-0.08;95.12;102236.72;5075235;28;20028;-75
2023/04/05 02:26:43;;;;;;;24.63;11.40;;;;;;;-0.10;94.77;102233.22;5071501;28;20048;-75
2023/04/05 02:29:08;;;;;;;24.30;10.40;;;;;;;-0.11;94.59;102228.81;5077684;28;20035;-75
2023/04/05 02:31:34;;;;;;;25.17;11.38;;;;;;;-0.13;94.76;102229.69;5070501;28;20036;-75
2023/04/05 02:33:59;;;;;;;24.42;10.65;;;;;;;-0.15;94.83;102224.41;5065808;28;20021;-75
2023/04/05 02:36:27;;;;;;;22.52;10.63;;;;;;;-0.17;94.75;102230.63;5080636;28;20021;-75
2023/04/05 02:38:52;;;;;;;23.52;9.63;;;;;;;-0.18;94.01;102221.81;5072014;28;20107;-75
2023/04/05 02:41:18;;;;;;;21.55;10.25;;;;;;;-0.17;94.24;102225.34;5072258;28;20051;-75
2023/04/05 02:43:44;;;;;;;21.67;9.25;;;;;;;-0.18;93.95;102221.81;5076567;28;20021;-75
2023/04/05 02:46:09;;;;;;;21.70;9.80;;;;;;;-0.20;94.43;102213.03;5080156;28;20056;-75
2023/04/05 02:48:35;;;;;;;22.38;10.20;;;;;;;-0.22;94.57;102220.06;5079698;28;20115;-75
2023/04/05 02:51:00;;;;;;;22.35;10.38;;;;;;;-0.25;94.31;102217.44;5079137;28;20032;-75
2023/04/05 02:53:25;;;;;;;22.15;9.88;;;;;;;-0.29;94.56;102223.63;5078890;28;20134;-75
2023/04/05 02:55:55;;;;;;;29.60;10.77;;;;;;;-0.33;93.93;102216.63;5070243;28;20044;-75
2023/04/05 02:58:22;;;;;;;;;;;;;;;-0.24;92.33;102219.22;5075898;28;20044;-75
2023/04/05 03:00:50;;;;;;;25.65;11.27;;;;;;;-0.34;94.50;102214.88;5075810;28;20015;-75
2023/04/05 03:03:19;;;;;;;23.80;11.40;;;;;;;-0.37;93.87;102216.66;5074628;28;20049;-75
2023/04/05 03:05:47;;;;;;;22.52;9.70;;;;;;;-0.38;93.21;102220.16;5075760;28;20120;-75
2023/04/05 03:08:18;;;;;;;22.42;9.80;;;;;;;-0.40;93.09;102208.72;5077173;28;20053;-75
2023/04/05 03:10:46;;;;;;;25.90;11.52;;;;;;;-0.39;93.88;102205.19;5078053;28;20029;-75
2023/04/05 03:13:15;;;;;;;22.65;9.82;;;;;;;-0.39;93.94;102202.56;5061660;28;20040;-75
2023/04/05 03:15:41;;;;;;;23.23;10.35;;;;;;;-0.40;93.85;102200.78;5080459;28;20424;-75
2023/04/05 03:18:06;;;;;;;21.85;8.75;;;;;;;-0.41;93.99;102195.53;5075489;28;20052;-75
2023/04/05 03:20:39;;;;;;;25.25;10.50;;;;;;;-0.46;94.17;102198.19;5071297;28;20040;-75
2023/04/05 03:23:08;;;;;;;21.25;9.80;;;;;;;-0.46;94.60;102194.69;5067150;28;20035;-75
2023/04/05 03:25:35;;;;;;;23.85;10.00;;;;;;;-0.47;93.86;102193.81;5073267;28;20032;-75
2023/04/05 03:28:04;;;;;;;22.55;9.82;;;;;;;-0.48;93.77;102196.44;5077818;28;20016;-75
2023/04/05 03:30:31;;;;;;;22.58;9.93;;;;;;;-0.49;94.18;102187.66;5074233;28;20080;-75
2023/04/05 03:32:56;;;;;;;22.08;9.52;;;;;;;-0.49;94.26;102184.16;5082234;28;20052;-75
2023/04/05 03:35:21;;;;;;;22.05;10.85;;;;;;;-0.52;93.53;102182.38;5075403;28;20136;-75
2023/04/05 03:37:47;;;;;;;22.45;9.63;;;;;;;-0.53;93.47;102185.91;5061549;28;20048;-75
2023/04/05 03:40:12;;;;;;;22.88;9.48;;;;;;;-0.55;93.80;102185.06;5074695;28;20037;-75
2023/04/05 03:42:37;;;;;;;22.52;9.73;;;;;;;-0.58;93.97;102185.94;5081980;28;20036;-75
2023/04/05 03:45:04;;;;;;;24.23;10.27;;;;;;;-0.59;94.01;102185.94;5070784;28;20097;-75
2023/04/05 03:47:30;;;;;;;23.17;9.73;;;;;;;-0.61;94.39;102187.72;5073818;28;20025;-75
2023/04/05 03:49:55;;;;;;;26.55;9.88;;;;;;;-0.64;94.49;102190.38;5071176;28;20040;-75
2023/04/05 03:52:21;;;;;;;22.20;9.55;;;;;;;-0.65;93.66;102183.34;5070028;28;20078;-75
2023/04/05 03:54:46;;;;;;;26.52;9.45;;;;;;;-0.67;93.02;102180.72;5079661;28;20092;-75
2023/04/05 03:57:11;;;;;;;24.40;10.57;;;;;;;-0.70;92.68;102180.72;5076952;28;20040;-75
2023/04/05 03:59:36;;;;;;;24.65;9.57;;;;;;;-0.69;92.27;102182.47;5080447;28;20029;-75
2023/04/05 04:02:02;;;;;;;21.17;9.13;;;;;;;-0.68;91.69;102183.38;5078197;28;20029;-75
2023/04/05 04:04:28;;;;;;;21.80;9.07;;;;;;;-0.69;91.60;102176.31;5087047;28;20025;-75
2023/04/05 04:06:55;;;;;;;22.45;9.73;;;;;;;-0.71;92.99;102166.63;5077082;28;20063;-75
2023/04/05 04:09:21;;;;;;;22.95;9.35;;;;;;;-0.73;92.92;102172.84;5075400;28;20028;-75
2023/04/05 04:11:47;;;;;;;22.42;10.27;;;;;;;-0.75;92.58;102164.91;5072803;28;20021;-75
2023/04/05 04:14:12;;;;;;;20.38;8.93;;;;;;;-0.76;92.39;102163.16;5074685;28;20123;-75
2023/04/05 04:16:37;;;;;;;20.20;8.77;;;;;;;-0.76;93.35;102160.53;5075530;28;20035;-75
2023/04/05 04:19:02;;;;;;;22.67;9.25;;;;;;;-0.76;92.88;102162.25;5077561;28;20025;-75
2023/04/05 04:21:31;;;;;;;31.25;10.77;;;;;;;-0.77;93.28;102171.94;5071384;28;20040;-75
2023/04/05 04:23:56;;;;;;;22.08;9.20;;;;;;;-0.78;93.38;102169.31;5077316;28;20054;-75
2023/04/05 04:26:27;;;;;;;22.92;10.20;;;;;;;-0.78;93.53;102164.03;5080470;28;20025;-75
2023/04/05 04:28:55;;;;;;;20.30;9.07;;;;;;;-0.77;93.78;102168.44;5073730;28;20025;-75
2023/04/05 04:31:21;;;;;;;21.85;8.90;;;;;;;-0.79;94.13;102163.19;5068801;28;20024;-75
2023/04/05 04:33:49;;;;;;;22.48;9.20;;;;;;;-0.80;93.97;102168.47;5079479;28;20029;-75
2023/04/05 04:36:16;;;;;;;23.98;10.65;;;;;;;-0.82;94.05;102165.84;5075180;28;20446;-75
2023/04/05 04:38:43;;;;;;;22.15;9.38;;;;;;;-0.85;94.07;102165.81;5073810;28;20024;-75
2023/04/05 04:41:12;;;;;;;23.45;9.90;;;;;;;-0.86;93.93;102169.38;5080060;28;20040;-75
2023/04/05 04:43:42;;;;;;;24.85;9.60;;;;;;;-0.87;93.59;102164.97;5070753;28;20091;-75
2023/04/05 04:46:13;;;;;;;24.27;10.63;;;;;;;-0.87;93.89;102162.31;5074388;28;20021;-75
2023/04/05 04:48:41;;;;;;;21.65;9.27;;;;;;;-0.89;93.55;102161.47;5072527;28;20032;-75
2023/04/05 04:51:06;;;;;;;25.90;9.88;;;;;;;-0.88;92.76;102165.84;5079842;28;20274;-75
2023/04/05 04:53:32;;;;;;;22.05;10.52;;;;;;;-0.89;93.23;102162.34;5073481;28;20036;-75
2023/04/05 04:55:57;;;;;;;21.55;9.77;;;;;;;-0.89;93.78;102164.97;5063939;28;20029;-75
2023/04/05 04:58:22;;;;;;;24.52;9.75;;;;;;;-0.89;93.53;102164.09;5062055;28;20033;-75
2023/04/05 05:00:47;;;;;;;26.20;9.18;;;;;;;-0.90;93.17;102165.84;5081036;28;20044;-75
2023/04/05 05:03:13;;;;;;;23.45;9.13;;;;;;;-0.91;94.13;102164.13;5080661;28;20020;-75
2023/04/05 05:05:42;;;;;;;23.65;10.63;;;;;;;-0.90;94.52;102157.94;5071247;28;20408;-75
2023/04/05 05:08:07;;;;;;;24.65;9.45;;;;;;;-0.92;93.40;102162.34;5077070;28;20053;-75
2023/04/05 05:10:33;;;;;;;22.23;9.15;;;;;;;-0.91;93.73;102160.56;5068358;28;20063;-75
2023/04/05 05:12:58;;;;;;;22.20;9.20;;;;;;;-0.89;93.79;102169.38;5079459;28;20031;-75
2023/04/05 05:15:23;;;;;;;24.02;8.40;;;;;;;-0.92;93.17;102166.75;5058874;28;20075;-75
2023/04/05 05:17:52;;;;;;;21.08;9.20;;;;;;;-0.92;93.27;102167.63;5062759;28;20063;-75
2023/04/05 05:20:17;;;;;;;21.20;8.63;;;;;;;-0.91;93.13;102171.13;5081066;28;20016;-75
2023/04/05 05:22:43;;;;;;;23.98;7.90;;;;;;;-0.90;93.61;102167.63;5077704;28;20024;-75
2023/04/05 05:25:08;;;;;;;22.98;8.40;;;;;;;-0.88;93.49;102160.56;5076078;28;20083;-75
2023/04/05 05:27:34;;;;;;;22.20;8.63;;;;;;;-0.89;93.14;102159.69;5084951;28;20055;-75
2023/04/05 05:30:00;;;;;;;20.15;9.40;;;;;;;-0.86;94.63;102164.09;5080274;28;20089;-75
2023/04/05 05:32:25;;;;;;;24.08;9.05;;;;;;;-0.83;94.92;102164.06;5081132;28;20078;-75
2023/04/05 05:34:51;;;;;;;23.35;10.40;;;;;;;-0.82;94.65;102150.00;5069735;28;20090;-75
2023/04/05 05:37:16;;;;;;;24.38;9.10;;;;;;;-0.82;94.92;102155.28;5072441;28;20028;-75
2023/04/05 05:39:43;;;;;;;21.60;8.65;;;;;;;-0.82;95.50;102157.03;5069996;28;20024;-75
2023/04/05 05:42:09;;;;;;;22.23;9.15;;;;;;;-0.79;95.25;102154.34;5076203;28;20044;-75
2023/04/05 05:44:35;;;;;;;20.20;8.65;;;;;;;-0.78;95.08;102158.75;5070292;28;20024;-75
2023/04/05 05:47:01;;;;;;;22.70;8.95;;;;;;;-0.75;95.94;102154.38;5066878;28;20051;-75
2023/04/05 05:49:27;;;;;;;21.08;9.05;;;;;;;-0.73;96.07;102157.84;5077876;28;20021;-75
2023/04/05 05:51:52;;;;;;;20.90;8.75;;;;;;;-0.69;95.44;102157.84;5061176;28;20033;-75
2023/04/05 05:54:17;;;;;;;21.50;8.55;;;;;;;-0.66;95.24;102149.91;5073857;28;20066;-75
2023/04/05 05:56:43;;;;;;;22.95;9.05;;;;;;;-0.62;94.25;102155.16;5068887;28;20049;-75
2023/04/05 05:59:09;;;;;;;23.98;9.60;;;;;;;-0.58;94.50;102158.66;5069114;28;20078;-75
2023/04/05 06:01:41;;;;;;;20.95;9.35;;;;;;;-0.53;93.88;102167.41;5058950;28;20075;-75
2023/04/05 06:04:06;;;;;;;24.30;9.60;;;;;;;-0.44;95.52;102167.38;5060735;28;20036;-75
2023/04/05 06:06:32;;;;;;;21.45;9.00;;;;;;;-0.39;96.09;102168.22;5066590;28;20554;-75
2023/04/05 06:08:58;;;;;;;22.05;9.68;;;;;;;-0.32;95.30;102163.78;5064535;28;20437;-75
2023/04/05 06:11:26;;;;;;;24.65;10.68;;;;;;;-0.25;96.07;102161.97;5070246;28;20036;-75
2023/04/05 06:13:53;;;;;;;22.65;9.85;;;;;;;-0.18;96.53;102163.66;5076461;28;20058;-75
2023/04/05 06:16:22;;;;;;;22.40;10.27;;;;;;;-0.12;97.30;102166.25;5055840;28;20111;-75
2023/04/05 06:18:47;;;;;;;23.52;9.30;;;;;;;-0.05;96.88;102165.31;5073066;28;20025;-75
2023/04/05 06:21:13;;;;;;;23.08;9.50;;;;;;;0.00;95.45;102170.59;5078121;28;20158;-75
2023/04/05 06:23:42;;;;;;;25.40;11.68;;;;;;;0.08;95.66;102181.09;5070453;28;20113;-75
2023/04/05 06:26:08;;;;;;;21.85;10.35;;;;;;;0.14;96.07;102170.47;5064092;28;20054;-77
2023/04/05 06:28:34;;;;;;;28.88;10.82;;;;;;;0.21;95.68;102176.59;5073779;28;20028;-77
2023/04/05 06:30:59;;;;;;;24.98;12.13;;;;;;;0.28;94.67;102168.59;5060300;28;20092;-77
2023/04/05 06:33:25;;;;;;;24.48;11.23;;;;;;;0.38;93.83;102169.38;5058387;28;20029;-77
2023/04/05 06:35:51;;;;;;;26.67;12.18;;;;;;;0.44;93.68;102165.78;5057064;28;20025;-77
2023/04/05 06:38:16;;;;;;;25.08;12.25;;;;;;;0.53;94.45;102168.34;5057582;28;20033;-75
2023/04/05 06:40:41;;;;;;;25.85;11.93;;;;;;;0.61;94.36;102163.84;5067330;28;20051;-75
2023/04/05 06:43:09;;;;;;;30.02;13.55;;;;;;;0.70;93.73;102170.81;5078079;28;20055;-75
2023/04/05 06:45:34;;;;;;;25.35;13.10;;;;;;;0.79;92.96;102164.53;5074666;28;20033;-75
2023/04/05 06:48:00;;;;;;;36.22;16.20;;;;;;;0.89;93.68;102167.97;5076580;28;20039;-75
2023/04/05 06:50:25;;;;;;;29.00;15.90;;;;;;;0.95;93.64;102171.44;5067663;28;20048;-75
2023/04/05 06:52:50;;;;;;;28.67;15.25;;;;;;;1.05;94.14;102166.88;5073994;28;20036;-75
2023/04/05 06:55:16;;;;;;;29.33;14.18;;;;;;;1.13;95.56;102169.41;5069153;28;20063;-75
2023/04/05 06:57:41;;;;;;;29.90;14.38;;;;;;;1.21;94.53;102179.03;5076301;28;20044;-76
2023/04/05 07:00:11;;;;;;;28.92;15.27;;;;;;;1.31;93.89;102174.50;5066957;28;20526;-75
2023/04/05 07:02:36;;;;;;;26.08;14.55;;;;;;;1.40;92.72;102176.13;5066209;28;20029;-75
2023/04/05 07:05:04;;;;;;;30.35;15.48;;;;;;;1.49;92.51;102183.09;5072760;28;20036;-75
2023/04/05 07:07:32;;;;;;;27.40;15.75;;;;;;;1.59;94.70;102179.41;5065121;28;20025;-75
2023/04/05 07:09:57;;;;;;;28.42;14.05;;;;;;;1.69;92.50;102169.56;5056613;28;20081;-75
2023/04/05 07:12:23;;;;;;;28.13;15.30;;;;;;;1.78;92.13;102169.41;5073246;28;20028;-75
2023/04/05 07:14:48;;;;;;;27.45;12.32;;;;;;;1.85;87.13;102163.13;5067029;28;20048;-76
2023/04/05 07:17:13;;;;;;;24.90;12.35;;;;;;;1.96;85.29;102175.31;5066446;28;20028;-75
2023/04/05 07:19:39;;;;;;;25.55;13.02;;;;;;;2.06;84.42;102172.47;5070379;28;20029;-75
2023/04/05 07:22:04;;;;;;;28.60;11.68;;;;;;;2.17;84.73;102172.31;5072654;28;20435;-75
2023/04/05 07:24:29;;;;;;;28.10;12.48;;;;;;;2.28;83.22;102169.47;5075537;28;20032;-75
2023/04/05 07:26:55;;;;;;;24.98;12.18;;;;;;;2.40;81.98;102171.94;5054900;28;20117;-75
2023/04/05 07:29:21;;;;;;;26.50;12.80;;;;;;;2.49;81.97;102164.69;5061660;28;20461;-75
2023/04/05 07:31:46;;;;;;;25.77;12.23;;;;;;;2.57;81.12;102168.94;5054089;28;20048;-75
2023/04/05 07:34:12;;;;;;;25.65;12.80;;;;;;;2.66;80.81;102167.91;5070794;28;20032;-76
2023/04/05 07:36:37;;;;;;;24.17;12.05;;;;;;;2.74;79.13;102170.44;5070498;28;20033;-75
2023/04/05 07:39:04;;;;;;;32.13;11.75;;;;;;;2.84;78.53;102158.72;5065991;28;20045;-75
2023/04/05 07:41:30;;;;;;;24.25;12.00;;;;;;;2.91;77.95;102159.47;5060920;28;20587;-76
2023/04/05 07:43:56;;;;;;;32.80;12.05;;;;;;;3.01;77.60;102165.47;5065963;28;20052;-76
2023/04/05 07:46:21;;;;;;;25.23;10.23;;;;;;;3.09;76.96;102167.06;5062778;28;20063;-76
2023/04/05 07:48:49;;;;;;;23.20;10.68;;;;;;;3.15;76.91;102164.28;5055545;28;20120;-76
2023/04/05 07:51:15;;;;;;;23.08;10.52;;;;;;;3.22;75.74;102164.13;5064882;28;20111;-76
2023/04/05 07:53:41;;;;;;;23.15;10.60;;;;;;;3.29;75.28;102171.06;5051051;28;20087;-76
2023/04/05 07:56:08;;;;;;;23.30;10.82;;;;;;;3.37;74.44;102169.13;5061013;28;20163;-76
2023/04/05 07:58:34;;;;;;;25.00;11.93;;;;;;;3.43;72.89;102163.69;5064912;28;20067;-76
2023/04/05 08:01:03;;;;;;;22.60;10.23;;;;;;;3.53;73.29;102163.47;5061725;28;20033;-75
2023/04/05 08:03:29;;;;;;;23.88;10.95;;;;;;;3.60;71.01;102160.66;5057361;28;20068;-76
2023/04/05 08:05:55;;;;;;;23.63;11.00;;;;;;;3.69;71.77;102156.91;5062823;28;20083;-75
2023/04/05 08:08:20;;;;;;;24.85;11.25;;;;;;;3.76;71.08;102161.13;5052531;28;20025;-75
2023/04/05 08:10:46;;;;;;;26.88;10.50;;;;;;;3.83;70.00;102165.41;5066054;28;20035;-75
2023/04/05 08:13:11;;;;;;;25.67;11.07;;;;;;;3.87;69.92;102158.25;5059297;28;20043;-75
2023/04/05 08:15:36;;;;;;;23.30;11.05;;;;;;;3.93;70.00;102159.88;5067107;28;20032;-75
2023/04/05 08:18:02;;;;;;;23.48;10.25;;;;;;;3.99;68.60;102160.59;5052076;28;20036;-75
2023/04/05 08:20:27;;;;;;;27.38;11.20;;;;;;;4.07;68.84;102160.41;5049381;28;20020;-75
2023/04/05 08:22:52;;;;;;;24.27;9.95;;;;;;;4.14;67.79;102167.34;5048992;28;20028;-75
2023/04/05 08:25:18;;;;;;;21.20;9.50;;;;;;;4.24;68.84;102157.31;5049709;28;20052;-75
2023/04/05 08:27:43;;;;;;;21.33;10.20;;;;;;;4.36;71.16;102166.75;5046912;28;20092;-75
2023/04/05 08:30:09;;;;;;;23.20;9.30;;;;;;;4.42;67.63;102158.59;5055948;28;20071;-76
2023/04/05 08:32:35;;;;;;;24.35;8.98;;;;;;;4.54;69.41;102155.63;5055316;28;20069;-75
2023/04/05 08:35:00;;;;;;;22.02;9.38;;;;;;;4.60;63.60;102161.69;5054908;28;20029;-76
2023/04/05 08:37:26;;;;;;;18.63;6.93;;;;;;;4.68;63.37;102162.38;5055244;28;20458;-76
2023/04/05 08:39:52;;;;;;;20.73;7.78;;;;;;;4.76;65.57;102155.06;5056946;28;20029;-76
2023/04/05 08:42:22;;;;;;;20.00;7.80;;;;;;;4.84;64.14;102158.34;5057652;28;20112;-75
2023/04/05 08:44:51;;;;;;;22.58;8.30;;;;;;;4.92;64.08;102158.16;5050515;28;20140;-75
2023/04/05 08:47:19;;;;;;;19.80;7.88;;;;;;;5.00;61.72;102157.94;5055951;28;20033;-76
2023/04/05 08:49:44;;;;;;;17.00;6.75;;;;;;;5.08;61.91;102153.22;5054762;28;20037;-76
2023/04/05 08:52:10;;;;;;;20.33;7.38;;;;;;;5.13;60.64;102163.78;5053614;28;20032;-76
2023/04/05 08:54:36;;;;;;;24.00;8.93;;;;;;;5.18;61.11;102156.50;5050199;28;20032;-76
2023/04/05 08:57:04;;;;;;;22.95;8.25;;;;;;;5.22;60.40;102163.50;5051696;28;20057;-76
2023/04/05 08:59:34;;;;;;;22.77;9.05;;;;;;;5.24;60.12;102157.22;5054302;28;20120;-76
2023/04/05 09:02:00;;;;;;;20.15;7.32;;;;;;;5.32;62.23;102161.44;5060060;28;20118;-76
2023/04/05 09:04:30;;;;;;;22.20;8.40;;;;;;;5.34;58.86;102156.94;5059764;28;20028;-75
2023/04/05 09:06:58;;;;;;;19.75;7.78;;;;;;;5.39;60.45;102149.69;5059815;28;20048;-76
2023/04/05 09:09:24;;;;;;;19.48;6.78;;;;;;;5.45;59.54;102154.81;5065245;28;20032;-76
2023/04/05 09:11:50;;;;;;;21.80;7.90;;;;;;;5.50;58.02;102144.88;5073695;28;20025;-76
2023/04/05 09:14:16;;;;;;;20.70;8.32;;;;;;;5.56;57.68;102147.38;5058481;28;20164;-76
2023/04/05 09:16:42;;;;;;;20.80;8.63;;;;;;;5.60;57.71;102143.66;5055669;28;20075;-75
2023/04/05 09:19:08;;;;;;;21.65;8.73;;;;;;;5.67;58.90;102133.69;5059695;28;20033;-76
2023/04/05 09:22:06;;;;;;;22.85;9.27;;;;;;;5.73;60.58;102138.81;5060221;28;20088;-76
2023/04/05 09:24:38;;;;;;;21.90;9.13;;;;;;;5.78;57.14;102141.31;5040803;28;20079;-76
2023/04/05 09:27:09;;;;;;;22.23;7.85;;;;;;;5.85;55.98;102134.88;5059455;28;20040;-76
2023/04/05 09:29:34;;;;;;;23.10;9.18;;;;;;;5.91;55.53;102129.31;5057139;28;20132;-76
2023/04/05 09:32:04;;;;;;;19.73;8.25;;;;;;;5.98;55.82;102131.84;5058055;28;20433;-76
2023/04/05 09:34:35;;;;;;;21.02;8.13;;;;;;;6.02;55.54;102130.78;5060582;28;20112;-76
2023/04/05 09:37:00;;;;;;;21.90;9.25;;;;;;;6.04;54.74;102126.28;5061344;28;20139;-76
2023/04/05 09:39:31;;;;;;;21.02;8.07;;;;;;;6.07;53.68;102128.84;5063712;28;20033;-76
2023/04/05 09:42:07;;;;;;;23.55;9.30;;;;;;;6.15;57.06;102129.47;5057781;28;20024;-76
2023/04/05 09:45:01;;;;;;;20.95;8.60;;;;;;;6.22;58.24;102125.69;5062627;28;20393;-76
2023/04/05 09:47:32;;;;;;;23.92;9.43;;;;;;;6.35;56.45;102138.59;5060798;28;20044;-76
2023/04/05 09:49:58;;;;;;;23.27;8.65;;;;;;;6.38;53.80;102128.66;5057947;28;20051;-76
2023/04/05 09:52:30;;;;;;;22.10;8.75;;;;;;;6.38;53.86;102125.97;5059267;28;20022;-76
2023/04/05 09:54:59;;;;;;;25.35;10.23;;;;;;;6.41;54.26;102122.34;5058061;28;20103;-76
2023/04/05 09:57:29;;;;;;;26.88;9.55;;;;;;;6.51;56.11;102123.75;5060666;28;20108;-76
2023/04/05 09:59:55;;;;;;;20.73;8.68;;;;;;;6.57;51.91;102120.00;5054236;28;20067;-76
2023/04/05 10:02:21;;;;;;;21.90;8.65;;;;;;;6.68;56.89;102112.47;5060367;28;20021;-76
2023/04/05 10:04:48;;;;;;;20.80;7.95;;;;;;;6.71;53.03;102117.69;5059389;28;20044;-76
2023/04/05 10:07:15;;;;;;;23.80;8.93;;;;;;;6.75;51.46;102116.66;5060077;28;20548;-76
2023/04/05 10:09:47;;;;;;;20.30;8.57;;;;;;;6.77;51.67;102111.25;5056504;28;20062;-76
2023/04/05 10:12:32;;;;;;;21.85;8.35;;;;;;;6.78;52.11;102108.53;5056226;28;20040;-76
2023/04/05 10:14:58;;;;;;;24.10;9.90;;;;;;;6.83;52.84;102108.34;5057671;28;20048;-76
2023/04/05 10:17:28;;;;;;;21.30;8.13;;;;;;;6.86;51.67;102105.56;5060721;28;20055;-76
2023/04/05 10:19:59;;;;;;;20.88;7.00;;;;;;;6.91;49.89;102098.25;5064928;28;20032;-76
2023/04/05 10:22:53;;;;;;;21.08;8.68;;;;;;;6.94;51.45;102100.81;5062701;28;20416;-76
2023/04/05 10:25:53;;;;;;;24.05;9.60;;;;;;;6.94;50.36;102098.13;5059460;28;20029;-76
2023/04/05 10:28:33;;;;;;;21.52;8.98;;;;;;;6.99;50.68;102098.81;5076146;28;20048;-76
2023/04/05 10:31:41;;;;;;;22.77;8.70;;;;;;;7.07;50.55;102092.31;5059924;28;20096;-76
2023/04/05 10:34:10;;;;;;;19.70;7.82;;;;;;;7.11;48.18;102092.13;5058274;28;20048;-76
2023/04/05 10:36:49;;;;;;;20.50;7.55;;;;;;;7.13;47.66;102094.75;5055984;28;20120;-76
2023/04/05 10:39:27;;;;;;;21.75;8.55;;;;;;;7.11;44.86;102088.59;5055259;28;20032;-76
2023/04/05 10:41:59;;;;;;;23.95;8.57;;;;;;;7.16;48.25;102083.97;5073631;28;20088;-76
2023/04/05 10:44:25;;;;;;;22.17;9.30;;;;;;;7.21;48.10;102094.47;5069656;28;20060;-76
2023/04/05 10:46:52;;;;;;;22.50;8.95;;;;;;;7.22;47.10;102085.50;5071438;28;20043;-76
2023/04/05 10:49:41;;;;;;;20.63;8.10;;;;;;;7.26;48.78;102088.00;5075321;28;20088;-75
2023/04/05 10:52:08;;;;;;;21.27;8.52;;;;;;;7.29;47.27;102087.88;5073865;28;20527;-75
2023/04/05 10:54:35;;;;;;;24.23;8.98;;;;;;;7.31;46.05;102086.00;5072211;28;20152;-76
2023/04/05 10:57:03;;;;;;;22.30;9.65;;;;;;;7.30;45.17;102081.56;5051391;28;20033;-75
2023/04/05 10:59:30;;;;;;;22.13;7.97;;;;;;;7.32;45.91;102085.09;5074443;28;20083;-77
2023/04/05 11:01:56;;;;;;;19.02;7.35;;;;;;;7.38;49.83;102069.72;5078911;28;20032;-77
2023/04/05 11:04:21;;;;;;;23.85;9.60;;;;;;;7.42;46.09;102071.31;5066683;28;20024;-77
2023/04/05 11:07:07;;;;;;;20.20;8.73;;;;;;;7.45;45.96;102063.19;5056925;28;20037;-76
2023/04/05 11:09:32;;;;;;;19.67;8.40;;;;;;;7.49;45.79;102064.81;5056319;28;20037;-76
2023/04/05 11:11:58;;;;;;;23.95;9.05;;;;;;;7.53;45.69;102051.22;5040925;28;20024;-76
2023/04/05 11:14:25;;;;;;;25.90;9.60;;;;;;;7.63;46.44;102056.22;5036711;28;20029;-80
2023/04/05 11:16:58;;;;;;;21.63;9.07;;;;;;;7.66;45.45;102048.06;5053025;28;20468;-79
2023/04/05 11:19:42;;;;;;;20.73;9.05;;;;;;;7.72;46.78;102052.25;5041348;28;20025;-78
2023/04/05 11:22:08;;;;;;;23.95;9.27;;;;;;;7.73;44.64;102054.00;5058866;28;20025;-78